createdAt,value
2023-05-20T00:00:27.463Z,71.72
2023-05-20T00:02:59.737Z,71.77
2023-05-20T00:05:30.932Z,72.38
2023-05-20T00:08:04.812Z,72.68
2023-05-20T00:10:36.796Z,72.91
2023-05-20T00:13:07.891Z,73.12
2023-05-20T00:15:38.479Z,73.35
2023-05-20T00:18:09.182Z,73.50
2023-05-20T00:20:40.244Z,73.63
2023-05-20T00:23:11.657Z,73.98
2023-05-20T00:25:42.119Z,74.13
2023-05-20T00:28:12.622Z,74.36
2023-05-20T00:30:43.409Z,74.48
2023-05-20T00:33:14.040Z,74.71
2023-05-20T00:35:46.276Z,74.82
2023-05-20T00:38:17.034Z,75.19
2023-05-20T00:40:47.563Z,75.35
2023-05-20T00:43:20.378Z,75.50
2023-05-20T00:45:52.479Z,75.67
2023-05-20T00:48:23.410Z,75.70
2023-05-20T00:50:54.275Z,75.95
2023-05-20T00:53:25.326Z,76.18
2023-05-20T00:55:55.987Z,76.36
2023-05-20T00:58:26.992Z,76.55
2023-05-20T01:00:58.183Z,76.52
2023-05-20T01:03:29.153Z,76.65
2023-05-20T01:06:01.205Z,76.89
2023-05-20T01:08:32.351Z,77.11
2023-05-20T01:11:11.733Z,77.16
2023-05-20T01:13:48.174Z,77.21
2023-05-20T01:16:21.304Z,77.40
2023-05-20T01:18:55.292Z,77.53
2023-05-20T01:21:28.599Z,77.53
2023-05-20T01:24:01.144Z,77.66
2023-05-20T01:26:33.550Z,77.65
2023-05-20T01:29:04.422Z,77.70
2023-05-20T01:31:38.005Z,77.85
2023-05-20T01:34:09.440Z,77.96
2023-05-20T01:36:41.430Z,78.20
2023-05-20T01:39:15.196Z,78.14
2023-05-20T01:41:46.686Z,78.26
2023-05-20T01:44:17.796Z,78.16
2023-05-20T01:46:51.681Z,78.28
2023-05-20T01:49:22.367Z,78.40
2023-05-20T01:51:52.859Z,78.59
2023-05-20T01:54:23.511Z,78.55
2023-05-20T01:56:55.764Z,78.72
2023-05-20T01:59:29.274Z,78.61
2023-05-20T02:01:59.793Z,78.61
2023-05-20T02:04:30.431Z,78.73
2023-05-20T02:07:01.200Z,78.68
2023-05-20T02:09:31.797Z,78.83
2023-05-20T02:12:02.386Z,79.02
2023-05-20T02:14:32.879Z,78.86
2023-05-20T02:17:04.912Z,79.07
2023-05-20T02:19:35.798Z,79.21
2023-05-20T02:22:08.476Z,79.30
2023-05-20T02:24:40.644Z,79.39
2023-05-20T02:27:11.890Z,79.62
2023-05-20T02:29:44.377Z,79.73
2023-05-20T02:32:14.967Z,79.90
2023-05-20T02:34:45.536Z,80.04
2023-05-20T02:37:20.057Z,79.90
2023-05-20T02:39:50.565Z,79.94
2023-05-20T02:42:21.126Z,79.98
2023-05-20T02:44:53.333Z,80.17
2023-05-20T02:47:23.954Z,80.12
2023-05-20T02:49:54.478Z,80.12
2023-05-20T02:52:25.664Z,80.25
2023-05-20T02:54:56.455Z,80.32
2023-05-20T02:57:30.824Z,80.32
2023-05-20T03:00:00.534Z,80.37
2023-05-20T03:02:32.655Z,80.55
2023-05-20T03:05:05.168Z,80.62
2023-05-20T03:07:39.133Z,80.66
2023-05-20T03:10:10.794Z,80.68
2023-05-20T03:12:44.381Z,80.64
2023-05-20T03:15:14.856Z,80.39
2023-05-20T03:17:45.641Z,80.43
2023-05-20T03:20:17.677Z,80.57
2023-05-20T03:22:48.208Z,80.52
2023-05-20T03:25:19.003Z,80.35
2023-05-20T03:27:49.607Z,80.43
2023-05-20T03:30:20.196Z,80.09
2023-05-20T03:32:50.824Z,79.90
2023-05-20T03:35:22.915Z,79.83
2023-05-20T03:37:54.127Z,79.83
2023-05-20T03:40:26.212Z,79.59
2023-05-20T03:42:58.471Z,79.62
2023-05-20T03:45:29.326Z,79.55
2023-05-20T03:48:02.464Z,79.62
2023-05-20T03:50:34.986Z,79.39
2023-05-20T03:53:05.790Z,79.06
2023-05-20T03:55:37.077Z,79.37
2023-05-20T03:58:08.538Z,79.52
2023-05-20T04:00:39.715Z,79.40
2023-05-20T04:03:10.826Z,79.52
2023-05-20T04:05:42.078Z,79.04
2023-05-20T04:08:13.874Z,79.35
2023-05-20T04:10:44.535Z,79.35
2023-05-20T04:13:15.843Z,79.73
2023-05-20T04:15:46.508Z,79.68
2023-05-20T04:18:17.261Z,79.69
2023-05-20T04:20:48.494Z,79.75
2023-05-20T04:23:20.194Z,79.39
2023-05-20T04:25:50.890Z,79.48
2023-05-20T04:28:24.507Z,79.44
2023-05-20T04:31:03.713Z,79.23
2023-05-20T04:33:36.600Z,79.10
2023-05-20T04:36:11.965Z,79.34
2023-05-20T04:38:44.664Z,78.88
2023-05-20T04:41:16.136Z,79.30
2023-05-20T04:43:46.976Z,79.42
2023-05-20T04:46:17.841Z,79.40
2023-05-20T04:48:49.482Z,79.38
2023-05-20T04:51:20.021Z,79.32
2023-05-20T04:53:51.035Z,79.18
2023-05-20T04:56:21.498Z,79.01
2023-05-20T04:58:53.860Z,79.53
2023-05-20T05:01:24.382Z,79.28
2023-05-20T05:03:54.860Z,79.24
2023-05-20T05:06:25.509Z,79.32
2023-05-20T05:08:56.845Z,79.05
2023-05-20T05:11:27.416Z,78.93
2023-05-20T05:13:57.913Z,78.76
2023-05-20T05:16:28.526Z,78.13
2023-05-20T05:18:59.367Z,78.92
2023-05-20T05:21:29.897Z,79.14
2023-05-20T05:24:00.667Z,79.45
2023-05-20T05:26:31.405Z,79.50
2023-05-20T05:29:04.065Z,79.92
2023-05-20T05:31:34.612Z,79.87
2023-05-20T05:34:08.803Z,80.24
2023-05-20T05:36:41.194Z,80.02
2023-05-20T05:39:12.605Z,80.14
2023-05-20T05:41:43.173Z,80.33
2023-05-20T05:44:14.075Z,80.28
2023-05-20T05:46:45.295Z,80.24
2023-05-20T05:49:17.733Z,80.02
2023-05-20T05:51:48.584Z,79.68
2023-05-20T05:54:20.977Z,79.50
2023-05-20T05:56:53.559Z,79.29
2023-05-20T05:59:24.222Z,79.08
2023-05-20T06:01:54.982Z,79.05
2023-05-20T06:04:25.540Z,78.50
2023-05-20T06:06:56.310Z,78.80
2023-05-20T06:09:26.947Z,78.28
2023-05-20T06:11:58.086Z,78.25
2023-05-20T06:14:28.687Z,78.10
2023-05-20T06:16:59.557Z,77.81
2023-05-20T06:19:30.645Z,78.36
2023-05-20T06:22:02.505Z,78.22
2023-05-20T06:24:35.918Z,78.44
2023-05-20T06:27:07.026Z,78.61
2023-05-20T06:29:37.805Z,78.55
2023-05-20T06:32:10.865Z,78.68
2023-05-20T06:34:43.524Z,78.91
2023-05-20T06:37:18.252Z,78.97
2023-05-20T06:39:51.160Z,79.12
2023-05-20T06:42:22.267Z,79.47
2023-05-20T06:44:57.300Z,78.83
2023-05-20T06:47:30.066Z,78.97
2023-05-20T06:50:00.818Z,78.61
2023-05-20T06:52:33.452Z,78.30
2023-05-20T06:55:06.298Z,78.13
2023-05-20T06:57:36.979Z,78.54
2023-05-20T07:00:09.594Z,78.29
2023-05-20T07:02:40.859Z,78.20
2023-05-20T07:05:11.757Z,77.89
2023-05-20T07:07:44.871Z,77.75
2023-05-20T07:10:15.557Z,76.93
2023-05-20T07:12:47.816Z,76.87
2023-05-20T07:15:20.020Z,77.16
2023-05-20T07:17:52.272Z,76.50
2023-05-20T07:20:24.097Z,75.67
2023-05-20T07:22:55.456Z,76.05
2023-05-20T07:25:26.107Z,75.68
2023-05-20T07:27:59.965Z,75.45
2023-05-20T07:30:30.845Z,75.06
2023-05-20T07:33:01.609Z,75.33
2023-05-20T07:35:33.044Z,74.66
2023-05-20T07:38:04.172Z,74.05
2023-05-20T07:40:36.515Z,74.93
2023-05-20T07:43:08.932Z,74.45
2023-05-20T07:45:39.952Z,73.61
2023-05-20T07:48:13.201Z,73.11
2023-05-20T07:50:45.954Z,72.21
2023-05-20T07:53:16.649Z,72.48
2023-05-20T07:55:47.161Z,72.67
2023-05-20T07:58:17.681Z,72.74
2023-05-20T08:00:49.572Z,72.10
2023-05-20T08:03:23.087Z,71.83
2023-05-20T08:05:55.452Z,71.56
2023-05-20T08:08:27.155Z,72.21
2023-05-20T08:11:01.381Z,71.00
2023-05-20T08:13:33.672Z,70.70
2023-05-20T08:16:06.229Z,71.16
2023-05-20T08:18:38.595Z,70.77
2023-05-20T08:21:10.556Z,69.80
2023-05-20T08:23:43.923Z,69.98
2023-05-20T08:26:16.060Z,69.36
2023-05-20T08:28:46.810Z,69.71
2023-05-20T08:31:19.291Z,68.99
2023-05-20T08:33:51.086Z,68.53
2023-05-20T08:36:21.730Z,68.94
2023-05-20T08:38:54.191Z,68.43
2023-05-20T08:41:25.818Z,68.19
2023-05-20T08:43:58.561Z,67.59
2023-05-20T08:46:30.826Z,66.91
2023-05-20T08:49:03.448Z,66.68
2023-05-20T08:51:36.813Z,67.18
2023-05-20T08:54:09.489Z,66.21
2023-05-20T08:56:43.065Z,66.60
2023-05-20T08:59:15.943Z,66.38
2023-05-20T09:01:46.754Z,67.06
2023-05-20T09:04:18.944Z,67.05
2023-05-20T09:06:51.144Z,66.49
2023-05-20T09:09:23.800Z,66.03
2023-05-20T09:11:54.964Z,66.54
2023-05-20T09:14:28.605Z,68.48
2023-05-20T09:17:00.797Z,69.22
2023-05-20T09:19:31.339Z,69.97
2023-05-20T09:22:05.409Z,70.52
2023-05-20T09:24:36.226Z,69.92
2023-05-20T09:27:07.186Z,69.63
2023-05-20T09:29:38.108Z,69.01
2023-05-20T09:32:09.376Z,68.77
2023-05-20T09:34:42.263Z,68.44
2023-05-20T09:37:15.176Z,68.19
2023-05-20T09:40:00.222Z,68.48
2023-05-20T09:42:36.798Z,68.42
2023-05-20T09:45:09.910Z,69.01
2023-05-20T09:47:42.504Z,68.65
2023-05-20T09:50:14.278Z,68.47
2023-05-20T09:52:45.575Z,68.70
2023-05-20T09:55:19.294Z,69.51
2023-05-20T09:57:51.974Z,68.26
2023-05-20T10:00:22.539Z,68.47
2023-05-20T10:02:54.318Z,67.62
2023-05-20T10:05:40.317Z,67.79
2023-05-20T10:08:30.360Z,67.73
2023-05-20T10:11:28.736Z,67.93
2023-05-20T10:14:09.280Z,68.49
2023-05-20T10:16:59.901Z,69.36
2023-05-20T10:19:36.527Z,69.12
2023-05-20T10:22:09.991Z,68.36
2023-05-20T10:24:42.874Z,69.03
2023-05-20T10:27:18.694Z,69.71
2023-05-20T10:29:58.816Z,68.89
2023-05-20T10:32:32.878Z,68.73
2023-05-20T10:35:06.013Z,68.58
2023-05-20T10:37:45.786Z,68.74
2023-05-20T10:40:19.130Z,69.02
2023-05-20T10:42:50.344Z,68.14
2023-05-20T10:45:29.002Z,65.75
2023-05-20T10:48:00.499Z,65.43
2023-05-20T10:50:36.923Z,66.61
2023-05-20T10:53:15.658Z,65.44
2023-05-20T10:55:42.336Z,66.25
2023-05-20T10:58:13.292Z,66.12
2023-05-20T11:00:45.823Z,65.72
2023-05-20T11:03:18.497Z,65.36
2023-05-20T11:05:49.281Z,64.66
2023-05-20T11:08:27.706Z,65.30
2023-05-20T11:10:52.853Z,64.18
2023-05-20T11:13:23.523Z,64.36
2023-05-20T11:15:54.428Z,64.72
2023-05-20T11:18:25.030Z,63.62
2023-05-20T11:20:56.035Z,63.08
2023-05-20T11:23:30.492Z,64.95
2023-05-20T11:26:01.143Z,64.19
2023-05-20T11:28:33.421Z,63.12
2023-05-20T11:31:05.714Z,62.39
2023-05-20T11:33:40.554Z,62.18
2023-05-20T11:36:26.959Z,60.96
2023-05-20T11:38:48.164Z,60.90
2023-05-20T11:41:22.218Z,63.35
2023-05-20T11:44:01.831Z,63.42
2023-05-20T11:46:32.414Z,64.14
2023-05-20T11:49:05.362Z,64.79
2023-05-20T11:51:41.462Z,64.75
2023-05-20T11:54:12.094Z,63.70
2023-05-20T11:56:45.470Z,61.89
2023-05-20T11:59:16.415Z,62.83
2023-05-20T12:01:47.463Z,62.54
2023-05-20T12:04:19.014Z,62.65
2023-05-20T12:06:50.157Z,62.44
2023-05-20T12:09:21.253Z,61.95
2023-05-20T12:11:52.587Z,60.51
2023-05-20T12:14:23.781Z,61.54
2023-05-20T12:16:56.075Z,61.69
2023-05-20T12:19:28.337Z,62.57
2023-05-20T12:21:59.013Z,61.90
2023-05-20T12:24:29.675Z,62.09
2023-05-20T12:27:03.185Z,62.21
2023-05-20T12:29:37.074Z,63.00
2023-05-20T12:32:09.845Z,63.47
2023-05-20T12:34:40.628Z,63.09
2023-05-20T12:37:11.317Z,63.81
2023-05-20T12:39:45.084Z,63.25
2023-05-20T12:42:17.251Z,63.04
2023-05-20T12:44:49.030Z,64.04
2023-05-20T12:47:20.427Z,63.57
2023-05-20T12:49:50.964Z,63.56
2023-05-20T12:52:22.871Z,61.85
2023-05-20T12:54:56.154Z,62.55
2023-05-20T12:57:27.000Z,62.53
2023-05-20T12:59:57.524Z,61.96
2023-05-20T13:02:28.156Z,62.04
2023-05-20T13:04:59.042Z,62.23
2023-05-20T13:07:29.694Z,62.51
2023-05-20T13:10:01.085Z,62.68
2023-05-20T13:12:31.763Z,62.99
2023-05-20T13:15:02.657Z,64.13
2023-05-20T13:17:34.863Z,63.45
2023-05-20T13:20:07.656Z,62.31
2023-05-20T13:22:43.520Z,62.18
2023-05-20T13:25:14.119Z,62.90
2023-05-20T13:27:44.857Z,62.59
2023-05-20T13:30:15.342Z,63.13
2023-05-20T13:32:47.378Z,63.17
2023-05-20T13:35:18.315Z,62.20
2023-05-20T13:37:54.531Z,61.83
2023-05-20T13:40:25.618Z,62.19
2023-05-20T13:42:56.383Z,62.11
2023-05-20T13:45:27.501Z,61.81
2023-05-20T13:47:59.106Z,62.51
2023-05-20T13:50:29.729Z,62.26
2023-05-20T13:53:00.382Z,62.16
2023-05-20T13:55:31.930Z,61.97
2023-05-20T13:58:02.513Z,61.59
2023-05-20T14:00:34.110Z,61.44
2023-05-20T14:03:07.229Z,61.74
2023-05-20T14:05:40.257Z,61.77
2023-05-20T14:08:11.046Z,61.53
2023-05-20T14:10:41.581Z,62.46
2023-05-20T14:13:16.530Z,62.13
2023-05-20T14:15:47.222Z,62.30
2023-05-20T14:18:19.714Z,62.42
2023-05-20T14:20:50.459Z,62.07
2023-05-20T14:23:21.403Z,61.43
2023-05-20T14:25:52.129Z,61.35
2023-05-20T14:28:22.647Z,61.49
2023-05-20T14:30:54.343Z,61.83
2023-05-20T14:33:25.021Z,61.88
2023-05-20T14:35:55.716Z,62.01
2023-05-20T14:38:27.496Z,62.29
2023-05-20T14:40:58.229Z,61.50
2023-05-20T14:43:31.557Z,61.08
2023-05-20T14:46:02.761Z,61.37
2023-05-20T14:48:33.345Z,61.03
2023-05-20T14:51:03.915Z,60.66
2023-05-20T14:53:34.375Z,61.47
2023-05-20T14:56:06.813Z,61.87
2023-05-20T14:58:37.361Z,61.90
2023-05-20T15:01:08.040Z,61.37
2023-05-20T15:03:38.896Z,61.74
2023-05-20T15:06:09.553Z,61.24
2023-05-20T15:08:40.040Z,60.94
2023-05-20T15:11:11.192Z,61.24
2023-05-20T15:13:42.913Z,60.61
2023-05-20T15:16:14.252Z,60.70
2023-05-20T15:18:45.041Z,61.11
2023-05-20T15:21:15.756Z,61.19
2023-05-20T15:23:47.652Z,61.50
2023-05-20T15:26:18.239Z,61.64
2023-05-20T15:28:52.105Z,61.63
2023-05-20T15:31:24.869Z,61.77
2023-05-20T15:33:56.084Z,61.43
2023-05-20T15:36:27.281Z,61.47
2023-05-20T15:39:01.619Z,61.85
2023-05-20T15:41:33.552Z,61.63
2023-05-20T15:44:04.254Z,61.65
2023-05-20T15:46:35.266Z,62.20
2023-05-20T15:49:06.061Z,61.93
2023-05-20T15:51:36.992Z,62.10
2023-05-20T15:54:07.489Z,62.03
2023-05-20T15:56:38.100Z,61.81
2023-05-20T15:59:09.129Z,61.92
2023-05-20T16:01:40.465Z,61.76
2023-05-20T16:04:11.584Z,61.74
2023-05-20T16:06:42.171Z,61.67
2023-05-20T16:09:12.887Z,62.25
2023-05-20T16:11:44.600Z,62.07
2023-05-20T16:14:15.135Z,62.23
2023-05-20T16:16:45.995Z,62.57
2023-05-20T16:19:16.695Z,62.22
2023-05-20T16:21:47.353Z,62.07
2023-05-20T16:24:17.932Z,61.85
2023-05-20T16:26:48.617Z,61.88
2023-05-20T16:29:19.137Z,62.35
2023-05-20T16:31:49.791Z,62.69
2023-05-20T16:34:22.661Z,62.52
2023-05-20T16:36:53.374Z,62.72
2023-05-20T16:39:24.038Z,62.76
2023-05-20T16:41:54.565Z,62.48
2023-05-20T16:44:25.412Z,62.28
2023-05-20T16:46:56.206Z,61.86
2023-05-20T16:49:28.829Z,61.42
2023-05-20T16:51:59.651Z,61.45
2023-05-20T16:54:31.022Z,61.31
2023-05-20T16:57:01.565Z,61.31
2023-05-20T16:59:35.587Z,61.57
2023-05-20T17:02:06.504Z,61.96
2023-05-20T17:04:37.236Z,62.17
2023-05-20T17:07:09.756Z,62.19
2023-05-20T17:09:40.804Z,62.36
2023-05-20T17:12:11.302Z,62.40
2023-05-20T17:14:43.042Z,62.44
2023-05-20T17:17:15.207Z,62.33
2023-05-20T17:19:46.134Z,62.37
2023-05-20T17:22:19.031Z,62.29
2023-05-20T17:24:49.714Z,62.37
2023-05-20T17:27:20.380Z,62.46
2023-05-20T17:29:51.194Z,62.67
2023-05-20T17:32:21.760Z,62.75
2023-05-20T17:34:52.525Z,62.90
2023-05-20T17:37:23.073Z,63.06
2023-05-20T17:39:55.134Z,63.04
2023-05-20T17:42:25.994Z,63.09
2023-05-20T17:44:56.862Z,63.24
2023-05-20T17:47:27.397Z,63.33
2023-05-20T17:49:59.642Z,63.32
2023-05-20T17:52:30.902Z,63.36
2023-05-20T17:55:01.510Z,63.55
2023-05-20T17:57:32.215Z,63.77
2023-05-20T18:00:03.970Z,63.89
2023-05-20T18:02:34.913Z,64.13
2023-05-20T18:05:06.848Z,64.23
2023-05-20T18:07:37.692Z,64.25
2023-05-20T18:10:11.528Z,64.28
2023-05-20T18:12:42.787Z,64.32
2023-05-20T18:15:14.086Z,64.20
2023-05-20T18:17:45.188Z,64.39
2023-05-20T18:20:16.426Z,64.26
2023-05-20T18:22:47.267Z,64.64
2023-05-20T18:25:18.015Z,64.56
2023-05-20T18:27:48.438Z,64.65
2023-05-20T18:30:19.288Z,64.78
2023-05-20T18:32:51.285Z,65.06
2023-05-20T18:35:22.718Z,65.11
2023-05-20T18:37:53.423Z,65.36
2023-05-20T18:40:24.139Z,65.28
2023-05-20T18:42:54.865Z,65.33
2023-05-20T18:45:27.687Z,65.45
2023-05-20T18:48:02.694Z,65.45
2023-05-20T18:50:33.809Z,65.67
2023-05-20T18:53:06.724Z,65.86
2023-05-20T18:55:37.293Z,66.03
2023-05-20T18:58:07.934Z,66.17
2023-05-20T19:00:38.939Z,66.35
2023-05-20T19:03:11.594Z,66.51
2023-05-20T19:05:44.074Z,66.74
2023-05-20T19:08:14.611Z,66.95
2023-05-20T19:10:45.134Z,67.09
2023-05-20T19:13:17.247Z,67.20
2023-05-20T19:15:47.970Z,67.36
2023-05-20T19:18:20.117Z,67.50
2023-05-20T19:20:56.325Z,67.56
2023-05-20T19:23:27.817Z,67.77
2023-05-20T19:26:01.823Z,67.73
2023-05-20T19:28:33.936Z,67.74
2023-05-20T19:31:06.083Z,67.55
2023-05-20T19:33:39.809Z,67.53
2023-05-20T19:36:14.865Z,67.35
2023-05-20T19:38:47.980Z,67.37
2023-05-20T19:41:21.095Z,67.46
2023-05-20T19:43:51.620Z,67.51
2023-05-20T19:46:22.369Z,67.54
2023-05-20T19:48:53.144Z,67.79
2023-05-20T19:51:23.687Z,68.00
2023-05-20T19:53:54.330Z,68.03
2023-05-20T19:56:24.950Z,68.06
2023-05-20T19:58:57.464Z,68.00
2023-05-20T20:01:28.160Z,68.03
2023-05-20T20:03:58.896Z,68.01
2023-05-20T20:06:29.613Z,68.29
2023-05-20T20:09:00.160Z,68.18
2023-05-20T20:11:30.777Z,68.00
2023-05-20T20:14:01.378Z,68.37
2023-05-20T20:16:32.005Z,68.17
2023-05-20T20:19:02.907Z,68.10
2023-05-20T20:21:35.171Z,68.12
2023-05-20T20:24:05.988Z,68.04
2023-05-20T20:26:36.961Z,67.88
2023-05-20T20:29:08.614Z,67.87
2023-05-20T20:31:39.386Z,67.68
2023-05-20T20:34:09.906Z,67.90
2023-05-20T20:36:40.614Z,67.97
2023-05-20T20:39:13.647Z,67.95
2023-05-20T20:41:45.079Z,67.79
2023-05-20T20:44:20.288Z,68.27
2023-05-20T20:46:52.285Z,68.12
2023-05-20T20:49:24.297Z,68.25
2023-05-20T20:51:55.990Z,68.41
2023-05-20T20:54:26.631Z,68.18
2023-05-20T20:56:57.300Z,68.25
2023-05-20T20:59:27.960Z,68.22
2023-05-20T21:01:58.979Z,68.48
2023-05-20T21:04:29.624Z,68.62
2023-05-20T21:07:02.090Z,68.80
2023-05-20T21:09:32.905Z,68.81
2023-05-20T21:12:05.311Z,69.07
2023-05-20T21:14:36.626Z,69.18
2023-05-20T21:17:07.620Z,69.44
2023-05-20T21:19:38.929Z,69.50
2023-05-20T21:22:09.558Z,69.60
2023-05-20T21:24:40.065Z,69.76
2023-05-20T21:27:14.397Z,69.81
2023-05-20T21:29:48.113Z,69.92
2023-05-20T21:32:20.659Z,70.23
2023-05-20T21:34:51.319Z,70.33
2023-05-20T21:37:22.388Z,70.31
2023-05-20T21:39:53.304Z,70.60
2023-05-20T21:42:25.157Z,70.78
2023-05-20T21:44:56.211Z,71.05
2023-05-20T21:47:28.283Z,71.24
2023-05-20T21:50:01.166Z,71.46
2023-05-20T21:52:33.089Z,71.75
2023-05-20T21:55:06.664Z,71.90
2023-05-20T21:57:37.934Z,72.24
2023-05-20T22:00:12.969Z,72.38
2023-05-20T22:02:43.878Z,72.47
2023-05-20T22:05:15.278Z,72.75
2023-05-20T22:07:45.871Z,72.98
2023-05-20T22:10:17.480Z,72.73
2023-05-20T22:12:48.276Z,73.29
2023-05-20T22:15:18.987Z,73.45
2023-05-20T22:17:50.205Z,73.85
2023-05-20T22:20:23.297Z,74.01
2023-05-20T22:22:53.884Z,74.21
2023-05-20T22:25:24.555Z,74.38
2023-05-20T22:27:55.827Z,74.64
2023-05-20T22:30:28.253Z,74.34
2023-05-20T22:33:00.474Z,74.53
2023-05-20T22:35:32.720Z,74.45
2023-05-20T22:38:03.804Z,74.52
2023-05-20T22:40:34.743Z,74.48
2023-05-20T22:43:06.797Z,74.24
2023-05-20T22:45:39.498Z,74.55
2023-05-20T22:48:10.489Z,74.79
2023-05-20T22:50:41.338Z,74.90
2023-05-20T22:53:11.993Z,74.80
2023-05-20T22:55:43.510Z,74.86
2023-05-20T22:58:14.083Z,75.01
2023-05-20T23:00:44.818Z,75.07
2023-05-20T23:03:15.961Z,74.91
2023-05-20T23:05:46.615Z,75.34
2023-05-20T23:08:17.209Z,75.42
2023-05-20T23:10:47.673Z,75.44
2023-05-20T23:13:18.350Z,75.50
2023-05-20T23:15:49.303Z,75.36
2023-05-20T23:18:19.855Z,75.61
2023-05-20T23:20:50.519Z,75.49
2023-05-20T23:23:30.070Z,75.47
2023-05-20T23:25:53.505Z,75.64
2023-05-20T23:28:24.226Z,75.79
2023-05-20T23:30:56.481Z,75.84
2023-05-20T23:33:27.309Z,75.89
2023-05-20T23:35:58.256Z,76.08
2023-05-20T23:38:30.480Z,76.08
2023-05-20T23:41:01.084Z,76.13
2023-05-20T23:43:31.636Z,76.30
2023-05-20T23:46:02.320Z,76.23
2023-05-20T23:48:32.923Z,76.35
2023-05-20T23:51:03.821Z,76.39
2023-05-20T23:53:34.486Z,76.57
2023-05-20T23:56:06.896Z,76.60
2023-05-20T23:58:37.733Z,76.84
